Begijnendijk, Belgium
Current Conditions -  °F | °C
As of 4:13 PM on Monday 22 Dec 2014 (Local Time) from EBDT Reporting Station
Broken Clouds Broken Clouds  
Wind Chill: 52°   Ceiling: 1600
Heat Index: 52°   Visibility: 6mi
Dew Point: 48°   Wind: 16mph
Humidity: 88%   Direction: 230°SW
Pressure: 30.09"   Gusts: 31mph
Location:  51.02°N, 4.78°E
Report Text: EBDT 221513Z AUTO 23014G27KT 9999 FEW013/// BKN016/// BKN020/// 11/09 Q1019 WHT
Loading
Personal Weather Stations






























Interactive Weather Map New forecast layout! Learn more

10-Day Weather Forecast

Advertisements
Track Severe Weather on mobile